Time;durP1;ratioP1;P1;durP2;ratioP2;P2;SDS_P1;SDS_P2;PMS_P1;PMS_P2;Temp;Humidity;BMP_temperature;BMP_pressure;BME280_temperature;BME280_humidity;BME280_pressure;Samples;Min_cycle;Max_cycle;Signal;HPM_P1;HPM_P2
2022/10/30 00:01:03;;;;;;;34.90;22.13;;;;;;;12.34;90.75;101020.73;1770891;80;21003;-72
2022/10/30 00:03:32;;;;;;;28.55;19.30;;;;;;;12.32;90.55;101015.12;1770534;80;21024;-72
2022/10/30 00:06:01;;;;;;;32.67;20.57;;;;;;;12.29;90.74;101012.14;1778812;80;21423;-72
2022/10/30 00:08:28;;;;;;;29.98;18.70;;;;;;;12.28;90.67;101006.48;1789414;80;21466;-72
2022/10/30 00:10:55;;;;;;;33.48;20.40;;;;;;;12.26;90.53;101004.36;1787885;80;21586;-72
2022/10/30 00:13:22;;;;;;;37.70;22.30;;;;;;;12.23;90.51;101000.53;1787738;80;20999;-73
2022/10/30 00:15:52;;;;;;;37.38;24.00;;;;;;;12.23;90.81;100997.44;1788035;80;21100;-77
2022/10/30 00:18:20;;;;;;;30.23;18.30;;;;;;;12.25;91.07;100995.63;1787878;80;20972;-72
2022/10/30 00:20:48;;;;;;;27.35;17.92;;;;;;;12.27;91.05;100999.03;1787755;80;21000;-72
2022/10/30 00:23:15;;;;;;;26.48;17.55;;;;;;;12.26;90.83;101002.58;1787825;80;21020;-72
2022/10/30 00:25:43;;;;;;;27.02;16.77;;;;;;;12.28;91.17;101002.55;1788253;80;21068;-72
2022/10/30 00:28:10;;;;;;;22.42;14.83;;;;;;;12.33;91.87;101004.99;1787833;80;21128;-77
2022/10/30 00:30:37;;;;;;;25.65;15.13;;;;;;;12.32;91.37;100992.31;1788014;80;21008;-72
2022/10/30 00:33:05;;;;;;;22.58;14.53;;;;;;;12.30;91.04;100992.81;1787942;80;21011;-72
2022/10/30 00:35:33;;;;;;;22.05;15.08;;;;;;;12.24;90.87;100984.69;1788110;80;21466;-72
2022/10/30 00:38:02;;;;;;;21.07;13.60;;;;;;;12.20;90.63;100990.13;1787687;80;21251;-72
2022/10/30 00:40:30;;;;;;;24.60;15.35;;;;;;;12.18;90.80;100990.63;1788184;80;21101;-72
2022/10/30 00:42:57;;;;;;;21.65;14.83;;;;;;;12.15;90.62;100994.20;1787789;80;21470;-72
2022/10/30 00:45:24;;;;;;;24.23;14.83;;;;;;;12.11;90.72;100993.04;1788069;80;21032;-71
2022/10/30 00:48:01;;;;;;;22.87;14.93;;;;;;;12.09;90.64;100993.57;1787918;80;21035;-72
2022/10/30 00:50:33;;;;;;;23.35;14.87;;;;;;;12.04;90.83;101002.91;1787747;80;21506;-72
2022/10/30 00:53:12;;;;;;;26.93;14.87;;;;;;;12.03;90.86;100999.43;1787992;80;21911;-72
2022/10/30 00:55:44;;;;;;;24.10;13.78;;;;;;;12.02;90.91;100992.90;1787909;80;21024;-76
2022/10/30 00:58:16;;;;;;;26.82;15.32;;;;;;;12.01;90.81;100993.82;1787725;80;21521;-72
2022/10/30 01:00:48;;;;;;;24.67;14.73;;;;;;;11.95;90.58;100992.26;1763738;80;21016;-73
2022/10/30 01:03:16;;;;;;;22.25;14.38;;;;;;;11.89;90.51;100987.22;1788553;80;21055;-72
2022/10/30 01:05:47;;;;;;;24.05;15.95;;;;;;;11.84;90.44;100990.41;1783353;80;21120;-71
2022/10/30 01:08:14;;;;;;;29.07;18.00;;;;;;;11.79;90.34;100988.38;1770672;81;21475;-72
2022/10/30 01:10:42;;;;;;;21.45;14.33;;;;;;;11.76;90.62;100988.48;1770737;80;21016;-72
2022/10/30 01:13:11;;;;;;;21.73;14.80;;;;;;;11.75;91.34;100986.32;1770726;81;20988;-72
2022/10/30 01:15:43;;;;;;;22.15;15.10;;;;;;;11.77;91.34;100983.17;1770631;80;21075;-72
2022/10/30 01:18:22;;;;;;;24.92;16.87;;;;;;;11.74;90.83;100987.67;1771203;80;21058;-72
2022/10/30 01:21:12;;;;;;;20.08;13.58;;;;;;;11.69;90.81;100977.77;1770648;81;21043;-72
2022/10/30 01:24:17;;;;;;;18.85;13.22;;;;;;;11.65;90.73;100973.53;1770548;81;21450;-72
2022/10/30 01:26:55;;;;;;;14.35;11.28;;;;;;;11.63;90.88;100977.51;1769606;80;21032;-71
2022/10/30 01:29:49;;;;;;;16.02;10.68;;;;;;;11.57;90.79;100964.59;1770814;80;20987;-72
2022/10/30 01:32:40;;;;;;;15.93;11.50;;;;;;;11.54;90.90;100967.31;1770542;81;21107;-72
2022/10/30 01:35:33;;;;;;;19.65;11.30;;;;;;;11.49;91.02;100960.88;1771131;80;21059;-72
2022/10/30 01:38:15;;;;;;;21.68;12.25;;;;;;;11.49;91.42;100956.09;1770616;80;21051;-72
2022/10/30 01:40:44;;;;;;;21.33;11.95;;;;;;;11.46;91.22;100962.30;1770413;80;20977;-72
2022/10/30 01:43:12;;;;;;;18.42;12.45;;;;;;;11.44;91.38;100970.66;1709360;78;21275;-72
2022/10/30 01:45:57;;;;;;;20.20;12.60;;;;;;;11.45;91.51;100967.61;1690982;84;21773;-72
2022/10/30 01:48:41;;;;;;;19.37;12.15;;;;;;;11.40;91.09;100974.31;1690651;84;21481;-76
2022/10/30 01:51:43;;;;;;;20.48;13.55;;;;;;;11.37;91.12;100977.03;1690345;84;21050;-72
2022/10/30 01:54:24;;;;;;;17.42;12.10;;;;;;;11.33;91.01;100972.34;1690875;84;21033;-72
2022/10/30 01:57:40;;;;;;;18.50;12.25;;;;;;;11.29;90.94;100978.58;1690050;84;21463;-72
2022/10/30 02:00:12;;;;;;;19.05;13.05;;;;;;;11.24;90.98;100967.81;1690786;84;21071;-72
2022/10/30 02:02:41;;;;;;;20.15;13.40;;;;;;;11.19;90.92;100965.32;1690848;84;21021;-72
2022/10/30 02:05:15;;;;;;;18.45;12.93;;;;;;;11.14;91.09;100958.03;1690782;84;21021;-72
2022/10/30 02:07:42;;;;;;;18.85;12.85;;;;;;;11.14;91.26;100959.34;1691043;84;21072;-72
2022/10/30 02:10:11;;;;;;;23.25;13.53;;;;;;;11.11;91.25;100954.20;1690959;84;21021;-72
2022/10/30 02:12:39;;;;;;;21.25;13.18;;;;;;;11.07;90.97;100956.06;1690790;84;21128;-72
2022/10/30 02:15:08;;;;;;;20.57;11.75;;;;;;;11.04;90.98;100967.97;1690660;84;21562;-72
2022/10/30 02:17:38;;;;;;;16.32;11.90;;;;;;;11.04;91.21;100969.73;1691266;84;20990;-79
2022/10/30 02:20:09;;;;;;;17.80;11.50;;;;;;;11.01;91.05;100973.77;1690854;84;21009;-72
2022/10/30 02:22:36;;;;;;;;;;;;;;;10.94;90.79;100966.05;1693698;84;21021;-72
2022/10/30 02:25:04;;;;;;;21.95;12.98;;;;;;;10.90;90.99;100964.89;1690907;84;21771;-72
2022/10/30 02:27:32;;;;;;;23.43;13.47;;;;;;;10.89;91.27;100964.47;1691002;84;22017;-72
2022/10/30 02:29:59;;;;;;;21.30;13.63;;;;;;;10.86;91.15;100962.83;1690834;84;20978;-72
2022/10/30 02:32:28;;;;;;;21.45;14.35;;;;;;;10.83;91.19;100966.81;1690792;84;21033;-72
2022/10/30 02:34:55;;;;;;;20.65;13.83;;;;;;;10.84;91.62;100959.37;1690962;84;21490;-72
2022/10/30 02:37:23;;;;;;;21.33;13.83;;;;;;;10.84;91.52;100957.22;1691065;84;21770;-72
2022/10/30 02:39:50;;;;;;;22.40;14.70;;;;;;;10.82;91.47;100952.45;1690837;84;21017;-72
2022/10/30 02:42:17;;;;;;;20.55;14.23;;;;;;;10.80;91.65;100955.56;1700098;82;21285;-73
2022/10/30 02:44:45;;;;;;;20.85;15.03;;;;;;;10.82;92.25;100958.55;1737946;82;20978;-72
2022/10/30 02:47:12;;;;;;;20.40;13.90;;;;;;;10.89;92.96;100960.11;1738063;82;21065;-72
2022/10/30 02:49:39;;;;;;;21.27;15.20;;;;;;;10.89;92.33;100952.24;1737983;82;21165;-72
2022/10/30 02:52:07;;;;;;;22.27;14.13;;;;;;;10.86;91.92;100956.27;1738121;82;21006;-72
2022/10/30 02:54:36;;;;;;;18.10;12.47;;;;;;;10.81;91.74;100953.34;1737876;82;21002;-72
2022/10/30 02:57:03;;;;;;;18.90;13.72;;;;;;;10.80;91.85;100959.50;1738147;82;21081;-72
2022/10/30 02:59:30;;;;;;;15.80;12.23;;;;;;;10.78;91.83;100954.74;1737833;82;21007;-72
2022/10/30 03:01:58;;;;;;;19.75;13.30;;;;;;;10.73;91.76;100947.03;1738154;82;21287;-72
2022/10/30 03:04:25;;;;;;;16.93;12.77;;;;;;;10.69;91.71;100947.55;1737825;82;20962;-72
2022/10/30 03:06:52;;;;;;;19.90;13.05;;;;;;;10.69;91.84;100946.70;1738102;82;21005;-73
2022/10/30 03:09:20;;;;;;;17.75;12.00;;;;;;;10.68;92.05;100950.23;1737876;82;21507;-72
2022/10/30 03:11:47;;;;;;;15.20;11.10;;;;;;;10.70;92.45;100951.06;1738395;82;21022;-72
2022/10/30 03:14:15;;;;;;;15.10;11.17;;;;;;;10.70;92.61;100959.77;1737855;82;21285;-72
2022/10/30 03:16:43;;;;;;;16.93;11.73;;;;;;;10.71;92.50;100952.77;1738188;82;20986;-72
2022/10/30 03:19:10;;;;;;;13.67;10.57;;;;;;;10.69;92.44;100950.17;1737746;82;21058;-72
2022/10/30 03:21:39;;;;;;;13.67;10.83;;;;;;;10.66;92.35;100948.10;1737827;82;21010;-72
2022/10/30 03:24:06;;;;;;;14.10;10.53;;;;;;;10.65;92.51;100945.94;1737801;82;21014;-73
2022/10/30 03:26:33;;;;;;;11.17;9.57;;;;;;;10.64;92.42;100942.92;1737744;82;21213;-72
2022/10/30 03:29:05;;;;;;;13.95;10.25;;;;;;;10.64;92.44;100943.34;1737719;82;20986;-72
2022/10/30 03:31:34;;;;;;;11.13;9.70;;;;;;;10.63;92.45;100948.19;1737711;82;21463;-72
2022/10/30 03:34:09;;;;;;;16.10;10.72;;;;;;;10.59;92.24;100947.42;1737064;82;20990;-72
2022/10/30 03:36:36;;;;;;;15.63;11.60;;;;;;;10.58;92.42;100952.24;1737844;82;21021;-72
2022/10/30 03:39:03;;;;;;;16.67;11.88;;;;;;;10.62;93.48;100947.34;1737728;82;21140;-72
2022/10/30 03:41:32;;;;;;;14.18;11.22;;;;;;;10.69;94.16;100953.25;1737807;82;20994;-72
2022/10/30 03:43:59;;;;;;;17.73;10.60;;;;;;;10.73;94.24;100943.56;1737376;82;21479;-72
2022/10/30 03:46:30;;;;;;;14.87;10.93;;;;;;;10.75;94.20;100946.52;1737255;82;21002;-72
2022/10/30 03:48:59;;;;;;;15.93;10.37;;;;;;;10.79;94.26;100949.47;1736578;82;21014;-73
2022/10/30 03:51:26;;;;;;;15.65;9.85;;;;;;;10.83;94.30;100950.23;1737248;82;21765;-72
2022/10/30 03:53:53;;;;;;;14.03;9.80;;;;;;;10.83;93.95;100953.70;1737547;82;22270;-72
2022/10/30 03:56:21;;;;;;;13.75;9.68;;;;;;;10.81;93.39;100949.41;1737401;82;21014;-72
2022/10/30 03:58:50;;;;;;;12.68;9.73;;;;;;;10.77;93.14;100946.02;1737588;82;21029;-72
2022/10/30 04:01:19;;;;;;;15.95;11.33;;;;;;;10.76;93.54;100945.63;1737159;82;21015;-72
2022/10/30 04:03:48;;;;;;;16.63;11.80;;;;;;;10.78;93.90;100935.97;1737834;82;21777;-72
2022/10/30 04:06:16;;;;;;;19.20;12.97;;;;;;;10.81;94.07;100938.49;1737215;82;21487;-72
2022/10/30 04:08:44;;;;;;;20.40;12.70;;;;;;;10.82;94.07;100936.72;1737329;82;21013;-72
2022/10/30 04:11:11;;;;;;;16.87;11.20;;;;;;;10.80;93.85;100934.59;1737347;82;20906;-72
2022/10/30 04:13:39;;;;;;;18.12;14.28;;;;;;;10.80;93.98;100933.28;1737251;82;21393;-72
2022/10/30 04:16:07;;;;;;;21.12;14.38;;;;;;;10.82;94.50;100934.95;1737200;82;21956;-72
2022/10/30 04:18:34;;;;;;;19.17;12.87;;;;;;;10.87;94.92;100923.88;1737413;82;21025;-72
2022/10/30 04:21:03;;;;;;;24.02;14.80;;;;;;;10.90;95.19;100927.72;1737299;82;21030;-72
2022/10/30 04:23:31;;;;;;;22.27;14.63;;;;;;;10.93;95.29;100925.00;1737678;82;20990;-72
2022/10/30 04:26:00;;;;;;;19.48;13.70;;;;;;;10.97;95.30;100931.01;1737299;82;21005;-72
2022/10/30 04:28:29;;;;;;;18.63;13.63;;;;;;;10.99;95.25;100937.07;1737954;82;21115;-72
2022/10/30 04:30:57;;;;;;;20.97;13.57;;;;;;;10.99;95.40;100923.95;1737570;82;21070;-72
2022/10/30 04:33:27;;;;;;;22.82;13.88;;;;;;;10.98;95.24;100922.25;1737320;82;21010;-72
2022/10/30 04:35:55;;;;;;;20.80;13.07;;;;;;;10.97;95.18;100923.14;1737856;82;20987;-72
2022/10/30 04:38:23;;;;;;;21.00;11.97;;;;;;;10.97;95.21;100917.03;1737712;82;21550;-72
2022/10/30 04:40:51;;;;;;;14.60;10.70;;;;;;;10.97;95.32;100910.48;1737534;82;21189;-72
2022/10/30 04:43:18;;;;;;;17.15;12.05;;;;;;;10.94;94.80;100909.66;1738356;82;21045;-72
2022/10/30 04:45:48;;;;;;;16.65;11.15;;;;;;;10.92;94.85;100906.25;1740084;82;21017;-75
2022/10/30 04:48:17;;;;;;;13.10;10.95;;;;;;;10.89;94.68;100911.59;1740390;82;21520;-72
2022/10/30 04:50:46;;;;;;;16.93;10.08;;;;;;;10.86;94.39;100914.73;1706699;82;21022;-72
2022/10/30 04:53:18;;;;;;;18.30;10.82;;;;;;;10.80;93.99;100906.59;1739331;82;22074;-72
2022/10/30 04:55:49;;;;;;;18.37;11.55;;;;;;;10.73;93.63;100913.41;1740242;82;21009;-72
2022/10/30 04:58:17;;;;;;;15.95;10.82;;;;;;;10.64;93.27;100911.88;1740288;82;21081;-72
2022/10/30 05:00:46;;;;;;;15.20;10.07;;;;;;;10.58;93.14;100914.23;1740322;82;21009;-72
2022/10/30 05:03:23;;;;;;;16.12;10.30;;;;;;;10.56;93.46;100917.80;1740546;82;21525;-72
2022/10/30 05:06:24;;;;;;;16.27;10.63;;;;;;;10.48;92.81;100922.83;1740275;82;21132;-72
2022/10/30 05:08:52;;;;;;;12.77;10.27;;;;;;;10.40;92.65;100923.49;1734713;82;21530;-72
2022/10/30 05:11:21;;;;;;;15.80;10.10;;;;;;;10.34;92.71;100926.29;1729047;82;20902;-72
2022/10/30 05:13:48;;;;;;;12.93;9.30;;;;;;;10.29;92.61;100928.63;1740573;82;21009;-72
2022/10/30 05:16:17;;;;;;;14.68;10.55;;;;;;;10.22;92.46;100931.36;1740273;82;21017;-72
2022/10/30 05:18:44;;;;;;;17.13;9.60;;;;;;;10.18;92.65;100934.12;1740698;82;21143;-72
2022/10/30 05:21:15;;;;;;;14.13;9.77;;;;;;;10.14;92.48;100934.66;1740230;82;21041;-72
2022/10/30 05:23:42;;;;;;;13.70;10.75;;;;;;;10.09;92.39;100933.03;1740956;82;21061;-72
2022/10/30 05:26:10;;;;;;;18.37;12.23;;;;;;;10.05;92.86;100930.95;1740357;82;21006;-72
2022/10/30 05:28:38;;;;;;;14.00;10.60;;;;;;;10.04;93.19;100931.41;1740343;82;21017;-72
2022/10/30 05:31:05;;;;;;;15.88;11.15;;;;;;;10.10;93.83;100927.77;1740327;82;21764;-72
2022/10/30 05:33:43;;;;;;;16.43;11.53;;;;;;;10.09;93.37;100933.03;1735414;82;20982;-77
2022/10/30 05:36:11;;;;;;;13.83;10.13;;;;;;;10.04;93.10;100935.80;1740205;82;20998;-72
2022/10/30 05:38:38;;;;;;;15.33;11.00;;;;;;;10.01;93.06;100943.28;1706973;82;21002;-72
2022/10/30 05:41:07;;;;;;;20.17;13.50;;;;;;;9.99;93.11;100940.29;1740186;82;21514;-72
2022/10/30 05:43:35;;;;;;;17.37;12.00;;;;;;;10.04;94.36;100937.96;1740381;82;21203;-72
2022/10/30 05:46:02;;;;;;;18.10;11.57;;;;;;;10.11;94.41;100939.95;1740251;82;21018;-72
2022/10/30 05:48:30;;;;;;;17.57;11.83;;;;;;;10.08;93.86;100938.73;1740618;82;21006;-72
2022/10/30 05:50:57;;;;;;;16.70;11.63;;;;;;;10.05;93.79;100940.12;1740305;82;21455;-72
2022/10/30 05:53:27;;;;;;;18.53;11.53;;;;;;;10.04;93.65;100943.20;1740838;82;21053;-73
2022/10/30 05:55:59;;;;;;;16.33;12.03;;;;;;;10.02;93.61;100941.06;1740298;82;21494;-72
2022/10/30 05:58:28;;;;;;;18.20;11.93;;;;;;;10.01;93.69;100939.35;1739769;82;21274;-72
2022/10/30 06:00:57;;;;;;;16.50;11.87;;;;;;;10.03;93.81;100949.34;1740266;82;21041;-72
2022/10/30 06:03:29;;;;;;;19.83;12.17;;;;;;;10.04;93.89;100943.66;1737681;82;21074;-73
2022/10/30 06:05:56;;;;;;;18.27;12.57;;;;;;;10.06;94.11;100952.34;1740295;82;20998;-72
2022/10/30 06:08:24;;;;;;;15.50;11.70;;;;;;;10.12;94.69;100954.80;1740287;82;21932;-72
2022/10/30 06:10:54;;;;;;;16.27;11.43;;;;;;;10.19;94.94;100956.33;1740167;82;21014;-72
2022/10/30 06:13:23;;;;;;;15.83;12.07;;;;;;;10.23;94.69;100963.22;1740021;82;20998;-72
2022/10/30 06:15:56;;;;;;;16.60;11.23;;;;;;;10.23;94.33;100965.84;1738372;82;21495;-73
2022/10/30 06:18:25;;;;;;;22.97;13.03;;;;;;;10.25;94.17;100964.48;1740279;82;21041;-72
2022/10/30 06:20:55;;;;;;;16.27;11.80;;;;;;;10.29;94.58;100962.69;1740429;82;22012;-72
2022/10/30 06:23:33;;;;;;;14.50;11.23;;;;;;;10.32;94.68;100962.14;1736885;82;20998;-72
2022/10/30 06:26:14;;;;;;;15.20;11.37;;;;;;;10.37;94.79;100961.58;1737371;82;21002;-72
2022/10/30 06:28:43;;;;;;;16.33;11.50;;;;;;;10.41;94.91;100958.41;1740110;82;21006;-79
2022/10/30 06:31:13;;;;;;;16.90;12.53;;;;;;;10.44;95.01;100964.88;1740536;82;21025;-72
2022/10/30 06:33:40;;;;;;;17.23;11.43;;;;;;;10.50;95.21;100971.25;1740185;82;21486;-72
2022/10/30 06:36:07;;;;;;;16.00;11.10;;;;;;;10.56;95.32;100975.47;1740656;82;20982;-72
2022/10/30 06:38:34;;;;;;;19.60;12.00;;;;;;;10.62;95.40;100978.80;1740163;82;21009;-72
2022/10/30 06:41:02;;;;;;;18.50;11.73;;;;;;;10.69;95.67;100980.33;1740524;82;21020;-72
2022/10/30 06:43:37;;;;;;;19.37;12.05;;;;;;;10.78;95.97;100975.30;1736709;82;20986;-72
2022/10/30 06:46:06;;;;;;;14.45;11.05;;;;;;;10.87;96.24;100980.27;1736303;82;21192;-71
2022/10/30 06:48:35;;;;;;;14.65;10.95;;;;;;;10.96;96.44;100975.66;1737341;82;21018;-71
2022/10/30 06:51:02;;;;;;;17.30;10.90;;;;;;;11.03;96.48;100978.48;1737280;82;20997;-71
2022/10/30 06:53:32;;;;;;;21.90;11.43;;;;;;;11.10;96.57;100981.34;1737295;82;21025;-71
2022/10/30 06:56:03;;;;;;;19.20;11.93;;;;;;;11.18;96.71;100979.36;1732016;82;21483;-71
2022/10/30 06:58:44;;;;;;;15.68;10.98;;;;;;;11.28;96.77;100987.79;1708179;82;21151;-72
2022/10/30 07:01:13;;;;;;;14.68;10.88;;;;;;;11.35;96.77;100988.88;1732554;82;20971;-72
2022/10/30 07:03:58;;;;;;;18.20;11.60;;;;;;;11.43;96.95;100989.96;1736676;82;20998;-72
2022/10/30 07:06:26;;;;;;;16.67;11.08;;;;;;;11.52;97.04;100996.69;1737264;82;21058;-72
2022/10/30 07:08:53;;;;;;;15.80;10.05;;;;;;;11.60;97.13;100988.11;1737258;82;21489;-72
2022/10/30 07:11:21;;;;;;;17.70;9.98;;;;;;;11.68;97.09;100989.19;1737526;82;21103;-78
2022/10/30 07:14:02;;;;;;;16.90;10.72;;;;;;;11.75;97.13;100982.37;1736433;82;20998;-72
2022/10/30 07:16:34;;;;;;;17.25;10.82;;;;;;;11.88;97.37;100980.69;1735353;82;21025;-73
2022/10/30 07:19:02;;;;;;;17.95;10.88;;;;;;;12.01;97.48;100980.22;1737335;82;21002;-73
2022/10/30 07:21:30;;;;;;;17.82;10.78;;;;;;;12.14;97.57;100978.48;1737533;82;21025;-73
2022/10/30 07:23:58;;;;;;;12.35;10.35;;;;;;;12.28;97.65;100982.83;1737336;82;21104;-73
2022/10/30 07:26:32;;;;;;;19.70;11.20;;;;;;;12.43;97.82;100979.65;1737027;82;21014;-73
2022/10/30 07:29:01;;;;;;;18.07;11.70;;;;;;;12.56;97.65;100986.66;1736782;82;21461;-73
2022/10/30 07:31:31;;;;;;;17.15;10.78;;;;;;;12.68;97.58;100993.23;1731783;82;21006;-73
2022/10/30 07:34:09;;;;;;;20.43;11.10;;;;;;;12.83;97.74;100990.48;1731915;82;20974;-72
2022/10/30 07:36:47;;;;;;;17.32;10.55;;;;;;;12.94;97.90;100978.67;1735023;82;21132;-73
2022/10/30 07:39:25;;;;;;;19.85;11.18;;;;;;;13.08;97.79;100978.58;1735218;82;21005;-74
2022/10/30 07:41:57;;;;;;;19.77;10.28;;;;;;;13.16;97.57;100977.41;1711899;82;21025;-73
2022/10/30 07:44:35;;;;;;;17.00;10.32;;;;;;;13.24;97.32;100973.13;1687442;84;20898;-72
2022/10/30 07:47:04;;;;;;;15.85;9.85;;;;;;;13.31;97.18;100976.44;1735400;82;21437;-73
2022/10/30 07:49:33;;;;;;;17.65;10.00;;;;;;;13.37;96.97;100972.23;1730898;82;21233;-73
2022/10/30 07:52:03;;;;;;;17.00;10.58;;;;;;;13.43;96.72;100973.77;1736448;82;21005;-73
2022/10/30 07:54:30;;;;;;;16.77;10.28;;;;;;;13.46;96.52;100966.59;1737562;82;21014;-72
2022/10/30 07:56:59;;;;;;;15.58;10.23;;;;;;;13.50;96.48;100962.09;1735887;82;20978;-73
2022/10/30 07:59:36;;;;;;;18.80;10.53;;;;;;;13.55;96.43;100964.05;1737495;82;21647;-73
2022/10/30 08:02:09;;;;;;;16.40;10.25;;;;;;;13.57;96.29;100959.12;1733415;82;21116;-73
2022/10/30 08:04:37;;;;;;;15.03;10.55;;;;;;;13.64;96.21;100964.16;1733063;82;21270;-73
2022/10/30 08:07:06;;;;;;;16.80;10.28;;;;;;;13.68;96.21;100964.42;1735584;82;21002;-73
2022/10/30 08:09:34;;;;;;;15.88;9.48;;;;;;;13.76;96.46;100963.18;1737224;82;21022;-73
2022/10/30 08:12:02;;;;;;;13.65;8.60;;;;;;;13.87;96.80;100962.73;1737305;82;21029;-73
2022/10/30 08:14:29;;;;;;;14.93;8.30;;;;;;;13.97;97.00;100975.94;1737564;82;21980;-73
2022/10/30 08:16:57;;;;;;;17.17;8.15;;;;;;;14.12;96.97;100969.62;1737125;82;21520;-73
2022/10/30 08:19:24;;;;;;;14.38;9.10;;;;;;;14.23;96.62;100963.42;1737549;82;21006;-73
2022/10/30 08:21:54;;;;;;;15.55;7.92;;;;;;;14.33;96.60;100962.54;1737299;82;21046;-73
2022/10/30 08:24:23;;;;;;;13.18;7.95;;;;;;;14.44;96.26;100969.08;1737362;82;21072;-73
2022/10/30 08:26:51;;;;;;;13.83;8.30;;;;;;;14.57;96.08;100965.92;1737403;82;21535;-73
2022/10/30 08:29:19;;;;;;;14.80;7.95;;;;;;;14.69;95.46;100963.60;1737145;82;20998;-73
2022/10/30 08:31:50;;;;;;;15.90;7.83;;;;;;;14.79;95.11;100967.13;1737295;82;21014;-73
2022/10/30 08:34:25;;;;;;;16.70;8.43;;;;;;;14.89;94.61;100964.01;1737421;82;20999;-73
2022/10/30 08:36:54;;;;;;;13.20;7.80;;;;;;;14.99;94.27;100968.38;1737423;82;21064;-73
2022/10/30 08:39:23;;;;;;;12.47;7.42;;;;;;;15.11;94.24;100969.15;1737454;82;21757;-72
2022/10/30 08:41:52;;;;;;;13.60;7.85;;;;;;;15.22;93.89;100969.12;1732436;82;21014;-73
2022/10/30 08:44:20;;;;;;;14.53;7.58;;;;;;;15.28;93.45;100970.99;1737397;82;20998;-73
2022/10/30 08:46:52;;;;;;;14.55;7.58;;;;;;;15.35;93.16;100978.15;1733283;82;21025;-73
2022/10/30 08:49:20;;;;;;;11.22;7.45;;;;;;;15.62;93.03;100957.47;1737195;82;20994;-72
2022/10/30 08:51:51;;;;;;;11.43;7.15;;;;;;;15.62;93.03;100957.47;1736977;82;21618;-73
2022/10/30 08:54:18;;;;;;;18.75;7.78;;;;;;;15.78;92.53;100949.20;1737379;82;21021;-73
2022/10/30 08:56:46;;;;;;;14.03;8.30;;;;;;;15.96;92.61;100950.09;1737537;82;21073;-74
2022/10/30 08:59:15;;;;;;;22.47;13.33;;;;;;;16.16;92.36;100956.99;1737589;82;20987;-73
2022/10/30 09:01:42;;;;;;;14.13;8.35;;;;;;;16.39;92.10;100953.14;1737585;82;21033;-73
2022/10/30 09:04:19;;;;;;;15.70;7.22;;;;;;;16.59;91.58;100954.73;1737267;82;21662;-73
2022/10/30 09:07:00;;;;;;;13.35;7.15;;;;;;;16.82;91.50;100951.34;1737705;82;21009;-72
2022/10/30 09:09:45;;;;;;;12.93;7.08;;;;;;;17.04;90.86;100938.63;1660155;86;21101;-74
2022/10/30 09:12:12;;;;;;;16.82;7.62;;;;;;;17.26;90.38;100938.77;1712023;82;20909;-72
2022/10/30 09:14:41;;;;;;;11.22;6.60;;;;;;;17.43;89.60;100937.36;1737009;82;21025;-73
2022/10/30 09:17:09;;;;;;;12.50;7.55;;;;;;;17.62;89.60;100941.11;1737546;82;21094;-73
2022/10/30 09:19:38;;;;;;;16.25;6.70;;;;;;;17.84;89.17;100938.94;1737229;82;20990;-73
2022/10/30 09:22:05;;;;;;;14.05;6.83;;;;;;;18.02;88.50;100933.52;1737539;82;20974;-73
2022/10/30 09:24:33;;;;;;;11.22;6.83;;;;;;;18.18;87.99;100931.66;1737182;82;21452;-72
2022/10/30 09:27:03;;;;;;;13.88;6.75;;;;;;;18.41;87.77;100929.40;1737746;82;20978;-73
2022/10/30 09:29:34;;;;;;;11.28;6.80;;;;;;;18.63;87.20;100929.77;1736867;82;21647;-73
2022/10/30 09:32:09;;;;;;;12.68;6.42;;;;;;;18.88;86.60;100921.15;1736692;82;21045;-73
2022/10/30 09:34:38;;;;;;;14.93;6.67;;;;;;;19.13;85.77;100926.23;1731510;82;27156;-73
2022/10/30 09:37:07;;;;;;;14.27;6.13;;;;;;;19.35;84.82;100923.03;1736179;82;21014;-73
2022/10/30 09:39:36;;;;;;;14.15;7.03;;;;;;;19.47;84.29;100922.20;1737807;82;21006;-73
2022/10/30 09:42:18;;;;;;;11.57;6.40;;;;;;;19.57;83.67;100914.48;1737305;82;21135;-73
2022/10/30 09:45:21;;;;;;;13.75;6.45;;;;;;;19.72;83.42;100921.46;1735709;82;21017;-72
2022/10/30 09:48:09;;;;;;;13.83;6.62;;;;;;;20.05;82.90;100918.81;1738051;82;21026;-73
2022/10/30 09:50:58;;;;;;;14.00;6.97;;;;;;;20.43;82.14;100917.48;1734591;82;21017;-73
2022/10/30 09:54:04;;;;;;;12.58;6.90;;;;;;;20.56;81.78;100917.48;1737452;82;22142;-73
2022/10/30 09:56:47;;;;;;;13.45;6.62;;;;;;;20.74;81.41;100907.35;1736990;82;21962;-74
2022/10/30 09:59:35;;;;;;;11.83;7.08;;;;;;;21.02;80.81;100902.20;1737196;82;21058;-73
2022/10/30 10:02:35;;;;;;;13.48;7.53;;;;;;;21.35;80.22;100912.69;1737282;82;21511;-73
2022/10/30 10:05:16;;;;;;;16.07;9.40;;;;;;;21.67;79.54;100911.66;1737839;82;21014;-73
2022/10/30 10:07:50;;;;;;;14.45;7.83;;;;;;;21.99;78.90;100909.19;1716925;82;21007;-74
2022/10/30 10:10:44;;;;;;;12.40;7.25;;;;;;;22.11;78.23;100914.05;1737440;82;21144;-73
2022/10/30 10:13:24;;;;;;;11.65;7.62;;;;;;;22.20;77.53;100909.39;1737219;82;21508;-74
2022/10/30 10:15:57;;;;;;;14.30;7.97;;;;;;;22.18;76.78;100911.32;1737389;82;20998;-74
2022/10/30 10:18:36;;;;;;;14.80;7.65;;;;;;;22.09;76.17;100911.14;1737232;82;21546;-73
2022/10/30 10:21:25;;;;;;;9.43;6.17;;;;;;;21.81;75.05;100917.28;1736499;82;21036;-78
2022/10/30 10:23:56;;;;;;;12.73;7.35;;;;;;;21.59;74.62;100920.23;1737683;82;21115;-73
2022/10/30 10:26:49;;;;;;;11.25;6.83;;;;;;;21.47;74.24;100920.28;1737280;82;20953;-72
2022/10/30 10:29:43;;;;;;;14.50;7.03;;;;;;;21.52;74.46;100923.47;1737568;82;21025;-73
2022/10/30 10:32:37;;;;;;;10.80;6.08;;;;;;;21.58;74.63;100916.33;1737328;82;20982;-72
2022/10/30 10:35:38;;;;;;;12.60;6.03;;;;;;;21.66;74.02;100910.43;1776727;80;21077;-74
2022/10/30 10:38:28;;;;;;;11.50;5.78;;;;;;;21.55;73.45;100905.41;1775971;80;21546;-73
2022/10/30 10:41:01;;;;;;;15.40;6.20;;;;;;;21.36;72.79;100901.05;1776932;80;20996;-73
2022/10/30 10:43:37;;;;;;;12.93;5.62;;;;;;;21.22;72.58;100895.41;1776841;80;21458;-72
2022/10/30 10:46:27;;;;;;;10.93;5.55;;;;;;;21.14;72.42;100892.00;1779119;80;21051;-72
2022/10/30 10:49:26;;;;;;;11.63;5.97;;;;;;;21.30;72.66;100889.52;1779998;80;21020;-75
2022/10/30 10:52:04;;;;;;;9.75;5.22;;;;;;;21.54;72.55;100891.72;1780120;80;21745;-73
2022/10/30 10:54:39;;;;;;;11.38;5.30;;;;;;;22.01;72.60;100889.91;1778690;80;21439;-79
2022/10/30 10:57:09;;;;;;;11.97;5.25;;;;;;;22.53;72.44;100885.47;1779877;80;21012;-72
2022/10/30 10:59:40;;;;;;;11.25;4.75;;;;;;;22.97;72.02;100880.58;1779793;80;21606;-72
2022/10/30 11:02:12;;;;;;;9.48;4.90;;;;;;;23.33;70.99;100867.36;1780061;80;21310;-73
2022/10/30 11:04:44;;;;;;;9.43;4.83;;;;;;;23.71;70.54;100865.13;1779461;80;20992;-72
2022/10/30 11:07:22;;;;;;;13.13;4.92;;;;;;;24.28;69.34;100857.08;1779870;80;21027;-73
2022/10/30 11:09:55;;;;;;;11.40;4.80;;;;;;;24.74;68.19;100859.72;1779811;80;20993;-72
2022/10/30 11:12:30;;;;;;;10.55;4.95;;;;;;;25.27;67.46;100859.89;1779826;80;22240;-72
2022/10/30 11:15:03;;;;;;;7.92;4.58;;;;;;;25.70;66.46;100859.45;1780162;80;21517;-72
2022/10/30 11:17:44;;;;;;;11.55;4.95;;;;;;;25.88;65.79;100857.39;1780067;80;22077;-72
2022/10/30 11:20:19;;;;;;;10.05;4.30;;;;;;;25.96;64.89;100862.89;1779499;80;21423;-72
2022/10/30 11:22:51;;;;;;;11.93;4.70;;;;;;;25.91;62.73;100859.78;1779937;80;21020;-72
2022/10/30 11:25:28;;;;;;;11.15;4.80;;;;;;;25.62;62.46;100869.22;1780189;80;21498;-72
2022/10/30 11:27:59;;;;;;;12.35;4.97;;;;;;;25.43;62.13;100863.36;1779731;80;21603;-73
2022/10/30 11:30:28;;;;;;;8.75;4.60;;;;;;;25.11;61.68;100855.91;1780150;80;21091;-73
2022/10/30 11:32:58;;;;;;;10.72;5.15;;;;;;;24.74;61.78;100861.55;1779915;80;21080;-72
2022/10/30 11:35:26;;;;;;;7.67;4.58;;;;;;;24.40;61.54;100855.98;1780170;80;20905;-73